createdAt,value
2022-07-25T16:07:07.577Z,5.30
2022-07-25T16:08:07.350Z,5.20
2022-07-25T16:09:07.736Z,5.70
2022-07-25T16:10:07.327Z,6.10
2022-07-25T16:11:07.324Z,6.90
2022-07-25T16:12:07.471Z,6.70
2022-07-25T16:13:07.310Z,6.60
2022-07-25T16:14:07.287Z,6.60
2022-07-25T16:15:07.283Z,6.40
2022-07-25T16:16:07.320Z,6.20
2022-07-25T16:17:07.284Z,7.00
2022-07-25T16:18:07.457Z,6.30
2022-07-25T16:19:08.190Z,6.50
2022-07-25T16:20:07.224Z,7.00
2022-07-25T16:21:07.218Z,6.00
2022-07-25T16:22:07.207Z,6.30
2022-07-25T16:23:07.205Z,6.10
2022-07-25T16:24:07.358Z,6.30
2022-07-25T16:25:07.170Z,6.40
2022-07-25T16:26:07.158Z,6.10
2022-07-25T16:27:07.169Z,7.00
2022-07-25T16:28:07.160Z,5.70
2022-07-25T16:29:07.569Z,6.00
2022-07-25T16:30:07.281Z,6.20
2022-07-25T16:31:07.192Z,5.90
2022-07-25T16:32:07.105Z,6.10
2022-07-25T16:33:07.088Z,5.40
2022-07-25T16:34:07.077Z,5.70
2022-07-25T16:35:07.082Z,5.80
2022-07-25T16:36:07.224Z,6.20
2022-07-25T16:37:07.052Z,5.70
2022-07-25T16:38:07.039Z,6.20
2022-07-25T16:39:07.318Z,6.00
2022-07-25T16:40:07.019Z,6.20
2022-07-25T16:41:07.012Z,5.70
2022-07-25T16:42:07.359Z,5.80
2022-07-25T16:43:06.991Z,5.70
2022-07-25T16:44:06.975Z,5.90
2022-07-25T16:45:06.959Z,6.10
2022-07-25T16:46:07.012Z,5.40
2022-07-25T16:47:07.006Z,6.30
2022-07-25T16:48:07.091Z,5.80
2022-07-25T16:49:07.231Z,6.00
2022-07-25T16:50:06.924Z,5.80
2022-07-25T16:51:06.922Z,5.90
2022-07-25T16:52:06.893Z,6.00
2022-07-25T16:53:06.889Z,6.00
2022-07-25T16:54:07.038Z,5.90
2022-07-25T16:55:06.885Z,6.20
2022-07-25T16:56:06.849Z,5.70
2022-07-25T16:57:06.840Z,6.40
2022-07-25T16:58:06.830Z,6.00
2022-07-25T16:59:07.326Z,6.00
2022-07-25T17:00:07.033Z,5.70
2022-07-25T17:01:06.819Z,6.00
2022-07-25T17:02:06.805Z,5.60
2022-07-25T17:03:06.786Z,5.80
2022-07-25T17:04:06.786Z,6.20
2022-07-25T17:05:06.825Z,5.70
2022-07-25T17:06:06.937Z,5.80
2022-07-25T17:07:06.742Z,6.10
2022-07-25T17:08:06.723Z,6.20
2022-07-25T17:09:07.012Z,6.10
2022-07-25T17:10:06.705Z,6.10
2022-07-25T17:11:06.698Z,6.00
2022-07-25T17:12:06.898Z,6.10
2022-07-25T17:13:06.684Z,5.60
2022-07-25T17:14:06.683Z,6.10
2022-07-25T17:15:06.680Z,6.30
2022-07-25T17:16:06.680Z,5.80
2022-07-25T17:17:06.836Z,5.80
2022-07-25T17:18:06.636Z,6.00
2022-07-25T17:19:06.935Z,6.10
2022-07-25T17:20:06.605Z,6.20
2022-07-25T17:21:06.622Z,5.80
2022-07-25T17:22:06.581Z,5.70
2022-07-25T17:23:06.809Z,5.90
2022-07-25T17:24:06.577Z,6.10
2022-07-25T17:25:06.572Z,6.00
2022-07-25T17:26:06.550Z,5.60
2022-07-25T17:27:06.538Z,5.80
2022-07-25T17:28:06.540Z,5.50
2022-07-25T17:29:06.940Z,6.00
2022-07-25T17:30:06.502Z,5.60
2022-07-25T17:31:06.550Z,5.50
2022-07-25T17:32:06.479Z,5.90
2022-07-25T17:33:06.478Z,5.40
2022-07-25T17:34:06.462Z,5.60
2022-07-25T17:35:06.742Z,5.50
2022-07-25T17:36:06.454Z,5.60
2022-07-25T17:37:06.437Z,6.00
2022-07-25T17:38:06.418Z,6.20
2022-07-25T17:39:06.707Z,6.20
2022-07-25T17:40:06.413Z,5.60
2022-07-25T17:41:06.602Z,5.60
2022-07-25T17:42:06.397Z,6.30
2022-07-25T17:43:06.388Z,6.00
2022-07-25T17:44:11.391Z,5.60
2022-07-25T17:45:07.348Z,5.80
2022-07-25T17:46:06.444Z,6.00
2022-07-25T17:47:06.497Z,5.50
2022-07-25T17:48:06.319Z,5.20
2022-07-25T17:49:06.406Z,5.60
2022-07-25T17:50:06.299Z,5.40
2022-07-25T17:51:06.311Z,5.70
2022-07-25T17:52:06.482Z,5.30
2022-07-25T17:53:06.292Z,5.80
2022-07-25T17:54:06.525Z,5.80
2022-07-25T17:55:06.256Z,5.30
2022-07-25T17:56:06.236Z,5.40
2022-07-25T17:57:06.230Z,5.20
2022-07-25T17:58:06.442Z,5.20
2022-07-25T17:59:06.212Z,5.20
2022-07-25T18:00:06.199Z,5.50
2022-07-25T18:01:10.337Z,5.20
2022-07-25T18:02:06.193Z,5.40
2022-07-25T18:03:06.225Z,5.60
2022-07-25T18:04:06.651Z,5.50
2022-07-25T18:05:06.158Z,5.60
2022-07-25T18:06:06.138Z,5.50
2022-07-25T18:07:06.115Z,5.60
2022-07-25T18:08:06.124Z,5.30
2022-07-25T18:09:06.103Z,5.60
2022-07-25T18:10:06.353Z,5.40
2022-07-25T18:11:06.094Z,5.50
2022-07-25T18:12:06.074Z,5.70
2022-07-25T18:13:06.069Z,5.50
2022-07-25T18:14:06.337Z,5.60
2022-07-25T18:15:06.248Z,5.70
2022-07-25T18:16:06.091Z,5.50
2022-07-25T18:17:06.018Z,5.60
2022-07-25T18:18:06.012Z,5.50
2022-07-25T18:19:06.003Z,5.60
2022-07-25T18:20:05.990Z,5.80
2022-07-25T18:21:06.324Z,5.40
2022-07-25T18:22:06.001Z,5.70
2022-07-25T18:23:05.953Z,5.40
2022-07-25T18:24:06.331Z,5.30
2022-07-25T18:25:05.958Z,5.20
2022-07-25T18:26:05.940Z,5.10
2022-07-25T18:27:06.070Z,5.10
2022-07-25T18:28:05.909Z,5.00
2022-07-25T18:29:05.896Z,5.50
2022-07-25T18:30:05.907Z,5.70
2022-07-25T18:31:05.957Z,4.70
2022-07-25T18:32:05.868Z,5.60
2022-07-25T18:33:06.004Z,5.70
2022-07-25T18:34:06.302Z,5.20
2022-07-25T18:35:05.832Z,5.60
2022-07-25T18:36:07.695Z,5.30
2022-07-25T18:37:05.816Z,5.50
2022-07-25T18:38:05.841Z,5.10
2022-07-25T18:39:05.966Z,5.40
2022-07-25T18:40:05.793Z,5.30
2022-07-25T18:41:28.133Z,5.20
2022-07-25T18:42:06.767Z,5.50
2022-07-25T18:43:06.637Z,5.50
2022-07-25T18:44:06.154Z,5.00
2022-07-25T18:45:05.905Z,5.40
2022-07-25T18:46:05.807Z,5.30
2022-07-25T18:47:05.720Z,5.00
2022-07-25T18:48:05.711Z,5.20
2022-07-25T18:49:05.745Z,5.00
2022-07-25T18:50:05.692Z,4.90
2022-07-25T18:51:05.828Z,5.20
2022-07-25T18:52:05.676Z,5.50
2022-07-25T18:53:05.662Z,5.10
2022-07-25T18:54:05.898Z,5.70
2022-07-25T18:55:05.630Z,5.10
2022-07-25T18:56:05.630Z,5.50
2022-07-25T18:57:05.847Z,5.30
2022-07-25T18:58:05.606Z,5.00
2022-07-25T18:59:05.859Z,5.50
2022-07-25T19:00:05.613Z,5.90
2022-07-25T19:01:05.571Z,5.00
2022-07-25T19:02:05.896Z,5.50
2022-07-25T19:03:05.713Z,4.90
2022-07-25T19:04:05.938Z,5.00
2022-07-25T19:05:05.611Z,5.60
2022-07-25T19:06:05.588Z,5.50
2022-07-25T19:07:05.498Z,5.80
2022-07-25T19:08:05.504Z,5.10
2022-07-25T19:09:05.648Z,5.40
2022-07-25T19:10:08.003Z,5.40
2022-07-25T19:11:05.479Z,5.30
2022-07-25T19:12:05.462Z,5.90
2022-07-25T19:13:05.451Z,5.40
2022-07-25T19:14:05.646Z,5.60
2022-07-25T19:15:05.433Z,5.50
2022-07-25T19:16:05.771Z,5.40
2022-07-25T19:17:05.401Z,5.60
2022-07-25T19:18:05.406Z,5.50
2022-07-25T19:19:05.423Z,5.70
2022-07-25T19:20:05.378Z,5.80
2022-07-25T19:21:05.363Z,5.60
2022-07-25T19:22:05.544Z,5.60
2022-07-25T19:23:05.472Z,5.90
2022-07-25T19:24:05.835Z,6.00
2022-07-25T19:25:05.334Z,6.00
2022-07-25T19:26:05.311Z,5.40
2022-07-25T19:27:06.273Z,5.80
2022-07-25T19:28:05.620Z,6.00
2022-07-25T19:29:05.309Z,5.30
2022-07-25T19:30:05.297Z,5.40
2022-07-25T19:31:05.340Z,5.80
2022-07-25T19:32:05.260Z,5.80
2022-07-25T19:33:05.244Z,5.40
2022-07-25T19:34:05.799Z,6.00
2022-07-25T19:35:05.216Z,5.70
2022-07-25T19:36:05.213Z,5.60
2022-07-25T19:37:05.207Z,5.70
2022-07-25T19:38:05.183Z,6.00
2022-07-25T19:39:05.170Z,5.80
2022-07-25T19:40:05.342Z,5.80
2022-07-25T19:41:05.165Z,5.70
2022-07-25T19:42:05.143Z,5.80
2022-07-25T19:43:05.135Z,5.70
2022-07-25T19:44:05.429Z,5.70
2022-07-25T19:45:05.113Z,6.10
2022-07-25T19:46:05.376Z,6.10
2022-07-25T19:47:09.788Z,6.00
2022-07-25T19:48:06.105Z,6.60
2022-07-25T19:49:05.102Z,6.20
2022-07-25T19:50:05.056Z,5.80
2022-07-25T19:51:05.048Z,6.60
2022-07-25T19:52:05.190Z,6.10
2022-07-25T19:53:05.071Z,5.80
2022-07-25T19:54:05.571Z,5.90
2022-07-25T19:55:04.995Z,5.80
2022-07-25T19:56:05.008Z,5.90
2022-07-25T19:57:04.985Z,6.50
2022-07-25T19:58:05.140Z,6.00
2022-07-25T19:59:04.970Z,5.80
2022-07-25T20:00:04.984Z,6.30
2022-07-25T20:01:04.983Z,6.10
2022-07-25T20:02:05.001Z,6.30
2022-07-25T20:03:05.172Z,6.30
2022-07-25T20:04:05.427Z,6.00
2022-07-25T20:05:04.914Z,6.30
2022-07-25T20:06:08.358Z,6.20
2022-07-25T20:07:04.877Z,6.40
2022-07-25T20:08:05.032Z,6.40
2022-07-25T20:09:05.166Z,6.10
2022-07-25T20:10:04.853Z,6.30
2022-07-25T20:11:04.837Z,6.30
2022-07-25T20:12:04.827Z,6.30
2022-07-25T20:13:04.813Z,5.90
2022-07-25T20:14:05.380Z,6.30
2022-07-25T20:15:04.794Z,6.10
2022-07-25T20:16:04.790Z,6.70
2022-07-25T20:17:04.874Z,6.70
2022-07-25T20:18:04.766Z,6.30
2022-07-25T20:19:04.917Z,6.40
2022-07-25T20:20:04.970Z,6.70
2022-07-25T20:21:04.771Z,6.50
2022-07-25T20:22:04.728Z,6.60
2022-07-25T20:23:04.711Z,6.40
2022-07-25T20:24:04.703Z,6.10
2022-07-25T20:25:13.397Z,6.40
2022-07-25T20:26:04.679Z,6.80
2022-07-25T20:27:04.677Z,6.50
2022-07-25T20:28:04.669Z,6.30
2022-07-25T20:29:04.881Z,6.60
2022-07-25T20:30:04.669Z,6.80
2022-07-25T20:31:04.864Z,6.50
2022-07-25T20:32:04.650Z,5.90
2022-07-25T20:33:09.398Z,6.50
2022-07-25T20:34:05.611Z,6.10
2022-07-25T20:35:04.613Z,6.40
2022-07-25T20:36:04.791Z,6.20
2022-07-25T20:37:04.565Z,6.60
2022-07-25T20:38:09.967Z,6.20
2022-07-25T20:39:05.819Z,6.00
2022-07-25T20:40:04.551Z,6.20
2022-07-25T20:41:04.702Z,6.10
2022-07-25T20:42:04.526Z,6.60
2022-07-25T20:43:04.520Z,7.00
2022-07-25T20:44:04.484Z,7.10
2022-07-25T20:45:04.491Z,6.50
2022-07-25T20:46:09.140Z,6.50
2022-07-25T20:47:05.631Z,6.80
2022-07-25T20:48:04.454Z,7.00
2022-07-25T20:49:04.563Z,6.40
2022-07-25T20:50:04.451Z,6.60
2022-07-25T20:51:04.428Z,6.90
2022-07-25T20:52:04.430Z,6.80
2022-07-25T20:53:04.648Z,6.80
2022-07-25T20:54:04.386Z,6.80
2022-07-25T20:55:06.683Z,6.70
2022-07-25T20:56:04.383Z,6.70
2022-07-25T20:57:04.362Z,7.20
2022-07-25T20:58:04.357Z,6.80
2022-07-25T20:59:04.765Z,6.80
2022-07-25T21:00:04.333Z,6.70
2022-07-25T21:01:04.382Z,6.50
2022-07-25T21:02:04.350Z,6.80
2022-07-25T21:03:04.296Z,7.20
2022-07-25T21:04:07.381Z,7.70
2022-07-25T21:05:04.435Z,7.30
2022-07-25T21:06:04.286Z,7.00
2022-07-25T21:07:05.331Z,6.90
2022-07-25T21:08:04.247Z,7.20
2022-07-25T21:09:04.368Z,7.70
2022-07-25T21:10:04.400Z,7.20
2022-07-25T21:11:04.216Z,7.10
2022-07-25T21:12:04.205Z,7.30
2022-07-25T21:13:04.197Z,7.80
2022-07-25T21:14:04.496Z,7.70
2022-07-25T21:15:04.179Z,7.40
2022-07-25T21:16:04.323Z,7.80
2022-07-25T21:17:04.223Z,7.50
2022-07-25T21:18:04.147Z,7.80
2022-07-25T21:19:04.202Z,8.30
2022-07-25T21:20:04.111Z,7.80
2022-07-25T21:21:05.774Z,7.80
2022-07-25T21:22:04.253Z,7.90
2022-07-25T21:23:04.097Z,7.70
2022-07-25T21:24:04.082Z,7.90
2022-07-25T21:25:04.067Z,7.60
2022-07-25T21:26:04.063Z,8.00
2022-07-25T21:27:04.212Z,8.20
2022-07-25T21:28:04.026Z,7.90
2022-07-25T21:29:04.349Z,7.50
2022-07-25T21:30:04.030Z,7.60
2022-07-25T21:31:03.997Z,7.70
2022-07-25T21:32:04.222Z,8.10
2022-07-25T21:33:03.994Z,8.20
2022-07-25T21:34:04.976Z,8.00
2022-07-25T21:35:03.963Z,8.00
2022-07-25T21:36:03.960Z,7.60
2022-07-25T21:37:03.977Z,7.70
2022-07-25T21:38:04.078Z,7.50
2022-07-25T21:39:04.303Z,7.60
2022-07-25T21:40:03.988Z,7.50
2022-07-25T21:41:04.080Z,6.70
2022-07-25T21:42:04.233Z,7.10
2022-07-25T21:43:04.039Z,6.20
2022-07-25T21:44:03.918Z,7.40
2022-07-25T21:45:03.880Z,6.90
2022-07-25T21:46:03.974Z,7.20
2022-07-25T21:47:03.840Z,7.20
2022-07-25T21:48:03.833Z,7.20
2022-07-25T21:49:04.037Z,6.90
2022-07-25T21:50:03.819Z,7.40
2022-07-25T21:51:07.566Z,7.00
2022-07-25T21:52:03.789Z,7.30
2022-07-25T21:53:03.778Z,6.80
2022-07-25T21:54:03.807Z,7.20
2022-07-25T21:55:04.105Z,7.30
2022-07-25T21:56:03.777Z,6.00
2022-07-25T21:57:03.742Z,7.10
2022-07-25T21:58:03.781Z,6.90
2022-07-25T21:59:03.869Z,7.00
2022-07-25T22:00:03.778Z,6.90
2022-07-25T22:01:03.915Z,6.90
2022-07-25T22:02:03.725Z,6.80
2022-07-25T22:03:03.721Z,6.70
2022-07-25T22:04:03.731Z,6.60
2022-07-25T22:05:03.726Z,6.90
2022-07-25T22:06:03.732Z,6.80
2022-07-25T22:07:04.007Z,7.00
2022-07-25T22:08:03.811Z,6.70
2022-07-25T22:09:03.625Z,6.80
2022-07-25T22:10:03.595Z,7.20
2022-07-25T22:11:15.973Z,7.00
2022-07-25T22:12:04.809Z,7.00
2022-07-25T22:13:03.572Z,6.80
2022-07-25T22:14:03.685Z,6.80
2022-07-25T22:15:03.537Z,6.90
2022-07-25T22:16:03.602Z,6.70
2022-07-25T22:17:03.603Z,6.80
2022-07-25T22:18:03.988Z,7.00
2022-07-25T22:19:03.567Z,6.60
2022-07-25T22:20:03.495Z,7.40
2022-07-25T22:21:03.483Z,7.10
2022-07-25T22:22:03.477Z,6.30
2022-07-25T22:23:04.193Z,7.00
2022-07-25T22:24:03.474Z,7.90
2022-07-25T22:25:03.445Z,7.20
2022-07-25T22:26:03.480Z,7.30
2022-07-25T22:27:03.473Z,6.70
2022-07-25T22:28:03.406Z,6.60
2022-07-25T22:29:03.610Z,6.90
2022-07-25T22:30:03.374Z,7.20
2022-07-25T22:31:03.387Z,6.80
2022-07-25T22:32:03.397Z,6.90
2022-07-25T22:33:03.405Z,7.00
2022-07-25T22:34:03.345Z,6.90
2022-07-25T22:35:03.515Z,7.40
2022-07-25T22:36:03.319Z,7.30
2022-07-25T22:37:03.324Z,7.00
2022-07-25T22:38:03.335Z,6.60
2022-07-25T22:39:03.291Z,7.20
2022-07-25T22:40:03.280Z,7.20
2022-07-25T22:41:03.425Z,7.60
2022-07-25T22:42:03.254Z,7.00
2022-07-25T22:43:03.263Z,7.00
2022-07-25T22:44:03.273Z,7.20
2022-07-25T22:45:03.281Z,7.00
2022-07-25T22:46:03.347Z,7.10
2022-07-25T22:47:03.352Z,7.60
2022-07-25T22:48:03.180Z,6.90
2022-07-25T22:49:03.278Z,7.20
2022-07-25T22:50:03.163Z,7.40
2022-07-25T22:51:03.190Z,7.00
2022-07-25T22:52:03.137Z,7.30
2022-07-25T22:53:03.286Z,7.50
2022-07-25T22:54:03.120Z,6.90
2022-07-25T22:55:03.239Z,7.50
2022-07-25T22:56:03.100Z,7.10
2022-07-25T22:57:03.158Z,7.50
2022-07-25T22:58:03.080Z,7.70
2022-07-25T22:59:03.234Z,8.00
2022-07-25T23:00:03.062Z,7.30
2022-07-25T23:01:03.057Z,7.40
2022-07-25T23:02:03.049Z,7.60
2022-07-25T23:03:03.110Z,7.20
2022-07-25T23:04:03.069Z,7.40
2022-07-25T23:05:03.208Z,7.30
2022-07-25T23:06:03.004Z,7.30
2022-07-25T23:07:02.995Z,7.80
2022-07-25T23:08:02.981Z,8.00
2022-07-25T23:09:02.966Z,7.90
2022-07-25T23:10:02.951Z,7.50
2022-07-25T23:11:03.169Z,7.70
2022-07-25T23:12:02.971Z,7.90
2022-07-25T23:13:02.941Z,7.30
2022-07-25T23:14:02.920Z,7.50
2022-07-25T23:15:02.976Z,7.20
2022-07-25T23:16:03.406Z,7.30
2022-07-25T23:17:03.374Z,7.70
2022-07-25T23:18:02.892Z,7.40
2022-07-25T23:19:03.102Z,7.80
2022-07-25T23:20:02.946Z,7.10
2022-07-25T23:21:02.831Z,7.30
2022-07-25T23:22:02.901Z,7.30
2022-07-25T23:23:03.053Z,7.40
2022-07-25T23:24:02.801Z,7.10
2022-07-25T23:25:02.789Z,6.90
2022-07-25T23:26:02.795Z,6.80
2022-07-25T23:27:02.764Z,7.30
2022-07-25T23:28:03.024Z,7.50
2022-07-25T23:29:02.856Z,6.90
2022-07-25T23:30:02.784Z,7.30
2022-07-25T23:31:02.731Z,7.40
2022-07-25T23:32:02.782Z,6.80
2022-07-25T23:33:03.157Z,7.40
2022-07-25T23:34:02.705Z,7.20
2022-07-25T23:35:02.691Z,7.30
2022-07-25T23:36:02.695Z,6.50
2022-07-25T23:37:02.725Z,7.30
2022-07-25T23:38:02.669Z,7.00
2022-07-25T23:39:02.841Z,6.90
2022-07-25T23:40:02.726Z,7.30
2022-07-25T23:41:02.618Z,7.20
2022-07-25T23:42:02.607Z,6.80
2022-07-25T23:43:02.600Z,6.90
2022-07-25T23:44:02.769Z,6.80
2022-07-25T23:45:02.582Z,7.00
2022-07-25T23:46:02.576Z,6.90
2022-07-25T23:47:02.624Z,6.90
2022-07-25T23:48:02.600Z,7.30
2022-07-25T23:49:02.754Z,6.90
2022-07-25T23:50:02.518Z,7.30
2022-07-25T23:51:02.541Z,6.80
2022-07-25T23:52:02.509Z,6.50
2022-07-25T23:53:02.689Z,6.70
2022-07-25T23:54:02.820Z,6.70
2022-07-25T23:55:02.467Z,6.70
2022-07-25T23:56:02.467Z,6.90
2022-07-25T23:57:02.443Z,6.80
2022-07-25T23:58:02.476Z,6.70
2022-07-25T23:59:02.430Z,6.90
